Date,TemperatureHighF,TemperatureAvgF,TemperatureLowF,DewpointHighF,DewpointAvgF,DewpointLowF,HumidityHigh,HumidityAvg,HumidityLow,PressureMaxIn,PressureMinIn,WindSpeedMaxMPH,WindSpeedAvgMPH,GustSpeedMaxMPH,PrecipitationSumIn
2013-1-1,16,11,-4,5,2,-9,89,67,59,30.55,30.27,11,3,14,0.00
2013-1-2,20,1,-10,5,-8,-16,79,66,50,30.86,30.65,15,7,17,0.00
2013-1-3,14,1,-11,-2,-9,-17,81,63,44,31.00,30.83,25,5,25,0.00
2013-1-4,22,10,-7,4,-4,-14,72,54,39,30.92,30.61,21,7,22,0.00
2013-1-5,27,7,-1,5,-2,-6,85,70,38,30.87,30.68,9,4,19,0.00
2013-1-6,31,16,0,9,2,-6,83,56,34,30.89,30.59,20,6,22,0.00
2013-1-7,29,14,2,8,0,-6,75,55,33,30.58,30.35,17,8,17,0.00
2013-1-8,29,15,4,8,1,-5,76,54,37,30.66,30.42,20,7,23,0.00
2013-1-9,37,21,7,13,8,1,82,60,36,30.82,30.55,21,4,24,0.00
2013-1-10,11,10,9,4,3,0,75,74,73,30.50,30.41,15,7,20,0.00
2013-1-11,25,0,-14,23,-7,-19,92,73,45,30.02,29.56,6,0,28,0.00
2013-1-12,2,-7,-20,-11,-17,-27,80,62,54,30.61,30.14,19,7,19,0.00
2013-1-13,4,-11,-20,-4,-18,-25,82,73,66,30.73,30.58,19,6,19,0.00
2013-1-14,11,4,-15,1,-4,-19,82,71,62,30.72,30.48,9,1,10,0.00
2013-1-15,15,-11,-20,-1,-18,-26,81,70,46,30.91,30.63,19,7,21,0.00
2013-1-16,28,15,-1,13,5,-4,89,68,50,30.93,30.68,19,6,23,0.00
2013-1-17,35,22,5,18,12,2,89,67,47,30.93,30.75,17,4,17,0.00
2013-1-18,33,20,4,16,10,1,88,66,47,30.79,30.58,23,7,23,0.00
2013-1-19,33,17,2,11,4,-4,84,60,34,30.84,30.66,20,7,23,0.00
2013-1-20,31,12,3,10,2,-4,76,64,37,30.76,30.56,20,9,21,0.00
2013-1-21,34,16,4,12,5,-3,80,61,39,30.72,30.51,24,7,24,0.00
2013-1-22,43,22,10,14,7,0,77,53,27,30.64,30.49,19,5,31,0.00
2013-1-23,32,21,6,6,1,-4,63,42,29,30.80,30.64,23,10,23,0.00
2013-1-24,44,25,15,22,12,6,86,59,31,30.67,30.36,11,5,21,0.00
2013-1-25,44,28,18,27,21,16,92,77,49,30.44,30.23,3,1,9,0.00
2013-1-26,35,27,19,31,24,17,95,89,83,30.32,29.93,5,2,11,0.01
2013-1-27,47,27,15,34,22,13,95,84,56,30.01,29.90,2,0,18,0.23
2013-1-28,34,28,17,30,25,14,95,89,79,29.95,29.63,2,1,14,0.00
2013-1-29,19,13,8,10,-3,-5,91,50,38,30.09,29.69,26,9,26,0.00
2013-1-30,31,24,-5,12,7,-10,82,50,43,30.41,30.22,28,7,28,0.24
2013-1-31,40,22,14,12,11,7,75,63,27,30.41,30.28,20,8,20,0.00
2013-2-1,38,28,6,16,12,1,87,53,39,30.59,30.37,18,3,18,0.00
2013-2-2,35,18,6,8,4,-1,73,54,31,30.76,30.60,19,8,19,0.00
2013-2-3,20,15,11,6,4,3,71,62,52,30.65,30.46,19,10,19,0.00
2013-2-4,34,21,10,16,9,5,82,60,35,30.34,30.14,21,8,21,0.00
2013-2-5,21,16,10,6,4,2,72,59,53,30.40,30.28,20,9,20,0.00
2013-2-6,40,28,11,27,16,6,93,63,39,30.25,30.04,18,5,19,0.00
2013-2-7,41,24,9,14,9,5,89,58,26,30.37,30.19,21,4,23,0.00
2013-2-8,39,26,9,25,17,4,84,70,40,30.37,29.90,20,2,22,0.00
2013-2-9,34,24,16,21,18,12,88,77,48,29.85,29.46,9,2,22,0.00
2013-2-10,30,17,0,11,6,-4,87,62,39,30.19,29.76,18,4,18,0.00
2013-2-11,28,20,2,15,6,-3,89,59,29,30.25,30.07,15,2,15,0.00
2013-2-12,29,17,-6,4,0,-11,79,48,31,30.52,30.29,20,6,21,0.00
2013-2-13,33,16,0,13,6,-3,85,65,42,30.58,30.30,18,5,18,0.03
2013-2-14,12,8,6,4,2,1,80,76,72,30.43,30.39,14,4,14,0.00
2013-2-15,31,17,3,5,1,-4,71,51,29,30.60,30.48,12,8,29,0.00
2013-2-16,45,23,5,13,5,-4,75,49,17,30.68,30.39,21,6,21,0.00
2013-2-17,46,25,5,9,2,-5,73,42,12,30.43,29.91,23,7,28,0.00
2013-2-18,38,26,7,7,-4,-17,77,31,10,30.29,29.94,20,4,20,0.00
2013-2-19,35,17,-1,10,1,-10,78,50,26,30.37,30.08,21,6,21,0.00
2013-2-20,35,23,13,24,17,6,89,78,60,30.06,29.58,6,1,12,0.01
2013-2-21,33,21,1,17,10,-2,90,65,42,30.01,29.79,19,5,19,0.00
2013-2-22,29,14,3,17,6,-2,87,71,40,30.24,30.01,21,6,21,0.00
2013-2-23,30,15,-3,14,5,-9,90,67,41,30.34,29.96,15,3,25,0.00
2013-2-24,30,21,-1,15,5,-9,91,54,19,30.10,29.87,18,3,18,0.00
2013-2-25,40,20,0,6,-1,-6,79,46,15,30.33,30.10,24,7,24,0.00
2013-2-26,28,16,1,13,2,-6,76,54,30,30.33,29.94,22,8,26,0.00
2013-2-27,32,12,0,3,-2,-8,78,55,20,30.60,30.38,11,5,24,0.00
2013-2-28,35,20,1,9,0,-10,64,44,23,30.69,30.52,18,8,26,0.00
2013-3-1,44,37,23,18,15,10,59,41,29,30.53,30.28,27,10,30,0.01
2013-3-2,52,36,16,22,16,10,81,48,20,30.55,30.29,17,5,23,0.01
2013-3-3,51,34,20,27,18,13,77,55,24,30.30,29.82,12,5,23,0.00
2013-3-4,45,36,27,32,20,11,93,56,28,30.06,29.67,24,6,25,0.02
2013-3-5,42,25,11,19,8,1,77,50,29,30.41,30.12,20,5,20,0.00
2013-3-6,50,33,14,20,12,5,72,47,19,30.38,30.05,19,6,19,0.00
2013-3-7,53,33,18,20,14,2,77,51,13,30.14,29.96,16,4,21,0.00
2013-3-8,46,33,19,29,22,13,94,65,32,30.03,29.73,19,4,20,0.00
2013-3-9,30,24,19,22,20,16,94,85,61,30.01,29.69,5,0,7,0.00
2013-3-10,41,28,2,17,10,-2,91,52,26,30.34,30.14,14,2,14,0.19
2013-3-11,49,31,11,15,11,6,79,48,22,30.37,30.07,11,4,20,0.03
2013-3-12,51,37,17,21,16,12,87,47,22,30.26,30.14,17,5,17,0.06
2013-3-13,55,40,21,23,17,13,74,43,22,30.42,30.26,18,6,18,0.00
2013-3-14,60,40,30,23,17,9,67,43,13,30.29,30.20,12,2,12,0.00
2013-3-15,62,40,28,25,17,8,64,43,13,30.28,29.90,18,6,29,0.00
2013-3-16,50,37,28,23,19,18,65,50,33,29.95,29.73,18,7,18,0.00
2013-3-17,42,28,23,31,24,20,96,83,57,29.89,29.72,14,5,14,0.01
2013-3-18,44,35,18,16,6,-4,79,33,14,29.95,29.83,27,6,27,0.01
2013-3-19,47,37,20,12,9,2,69,34,16,30.21,30.02,14,3,15,0.00
2013-3-20,49,36,19,26,14,6,60,40,23,30.26,29.92,19,6,20,0.00
2013-3-21,48,38,25,31,19,9,90,52,23,29.89,29.55,25,6,25,0.00
2013-3-22,45,37,19,16,7,-8,60,30,11,29.78,29.54,25,6,25,0.00
2013-3-23,26,21,15,10,-1,-11,72,39,21,30.13,29.63,28,7,30,0.00
2013-3-24,32,21,3,5,-5,-10,72,36,18,30.33,30.16,24,9,24,0.00
2013-3-25,10,7,5,1,-1,-2,76,70,68,30.40,30.35,12,2,12,0.00
2013-3-26,51,37,15,18,10,3,70,35,19,30.37,30.00,23,6,23,0.00
2013-3-27,49,30,23,23,19,14,85,68,25,30.07,29.99,14,2,14,0.00
2013-3-28,57,42,26,23,16,11,69,38,16,30.10,29.96,19,5,19,0.00
2013-3-29,58,41,28,24,19,13,76,46,17,30.16,30.00,17,5,18,0.00
2013-3-30,58,44,27,24,19,14,79,43,18,30.18,29.94,19,7,21,0.00
2013-3-31,59,44,28,25,20,2,77,43,10,30.07,29.86,18,5,18,0.00
2013-4-1,45,36,29,25,22,19,69,56,44,29.97,29.91,10,4,18,0.00
2013-4-2,51,36,24,27,16,6,80,50,16,29.95,29.76,9,3,24,0.00
2013-4-3,54,38,24,26,20,11,89,55,18,30.14,29.96,6,2,21,0.00
2013-4-4,62,42,26,24,17,4,70,43,10,30.22,29.97,10,4,22,0.00
2013-4-5,59,43,32,30,20,5,69,44,13,30.03,29.69,11,5,32,0.00
2013-4-6,60,45,30,28,21,9,84,46,15,29.85,29.69,8,4,21,0.00
2013-4-7,57,43,30,24,19,11,73,44,17,29.78,29.58,11,5,28,0.00
2013-4-8,52,41,27,33,21,12,75,48,20,29.67,29.25,21,3,27,0.01
2013-4-9,33,30,23,31,27,21,96,89,77,29.81,29.30,7,0,7,0.01
2013-4-10,38,31,14,26,19,12,93,63,41,29.95,29.81,17,4,17,0.30
2013-4-11,49,33,13,25,17,11,90,57,29,30.03,29.85,18,4,19,0.00
2013-4-12,52,37,24,26,19,12,79,53,21,29.96,29.81,10,5,20,0.00
2013-4-13,55,42,27,25,19,14,83,45,21,29.94,29.61,28,7,28,0.00
2013-4-14,53,43,31,31,23,16,93,52,24,29.50,29.35,36,6,36,0.13
2013-4-15,56,47,32,29,24,16,76,42,25,29.53,29.39,26,4,26,0.00
2013-4-16,58,50,32,25,15,5,72,28,12,29.56,29.36,30,6,30,0.00
2013-4-17,44,33,26,30,24,14,92,71,30,29.70,29.41,21,3,26,0.03
2013-4-18,30,23,10,10,3,-2,75,44,25,30.35,29.83,25,7,29,0.00
2013-4-19,51,32,10,16,8,-1,84,43,17,30.47,30.07,17,5,29,0.00
2013-4-20,46,38,24,25,20,16,77,48,32,30.05,29.83,19,4,19,0.00
2013-4-21,57,45,20,23,10,-8,94,35,8,30.20,29.97,21,6,21,0.00
2013-4-22,61,48,30,29,20,9,82,40,13,30.01,29.62,29,6,30,0.00
2013-4-23,46,37,27,24,12,-15,77,41,8,30.01,29.62,31,6,31,0.00
2013-4-24,53,38,24,17,8,1,60,34,13,30.15,30.03,9,4,22,0.00
2013-4-25,59,42,26,36,21,14,89,50,17,30.13,29.78,8,3,30,0.03
2013-4-26,57,46,31,34,21,10,91,45,15,30.04,29.93,18,4,18,0.02
2013-4-27,62,47,26,24,15,2,85,35,9,30.23,30.00,21,7,22,0.00
2013-4-28,68,47,29,20,14,7,53,31,10,30.07,29.75,19,8,19,0.00
2013-4-29,68,57,34,23,16,9,57,24,11,29.83,29.53,21,7,25,0.00
2013-4-30,68,55,36,24,19,6,58,29,9,29.60,29.45,28,6,28,0.00
2013-5-1,59,47,32,24,11,-9,68,30,6,29.99,29.52,23,4,23,0.00
2013-5-2,52,39,18,16,2,-11,77,28,8,30.36,30.12,20,3,20,0.00
2013-5-3,61,42,25,15,8,4,46,28,11,30.36,29.85,18,6,21,0.00
2013-5-4,61,44,23,22,15,8,74,36,13,29.97,29.81,15,3,16,0.00
2013-5-5,45,32,28,22,21,19,75,65,37,30.01,29.95,3,0,13,0.00
2013-5-6,47,40,35,41,35,29,92,86,61,29.93,29.80,8,1,10,0.35
2013-5-7,57,47,32,36,30,24,96,55,29,30.01,29.80,23,4,23,0.02
2013-5-8,51,41,31,34,27,18,92,61,28,29.94,29.84,21,3,21,0.03
2013-5-9,53,44,32,33,30,26,89,61,36,30.05,29.94,18,3,18,0.01
2013-5-10,53,42,26,38,31,25,95,66,38,30.23,30.10,15,4,16,0.12
2013-5-11,59,46,31,35,29,23,95,56,26,30.36,30.18,15,4,21,0.01
2013-5-12,67,51,34,32,27,21,83,46,19,30.27,30.03,15,5,18,0.00
2013-5-13,71,52,36,44,30,21,81,48,16,30.17,29.96,16,6,21,0.00
2013-5-14,66,54,39,42,35,30,80,51,27,29.99,29.77,19,7,19,0.00
2013-5-15,47,45,44,41,39,38,86,77,74,29.84,29.81,13,4,13,0.00
2013-5-16,71,54,36,36,28,22,92,45,16,29.82,29.65,10,3,19,0.00
2013-5-17,43,38,34,30,24,23,69,58,46,29.83,29.74,14,6,15,0.00
2013-5-18,62,48,34,30,22,15,68,38,18,29.80,29.63,10,4,26,0.00
2013-5-19,56,42,31,27,23,12,75,50,17,29.85,29.67,10,4,28,0.00
2013-5-20,57,39,27,25,23,21,85,59,25,29.91,29.80,8,4,17,0.00
2013-5-21,65,47,29,34,26,15,96,54,15,30.03,29.76,9,3,20,0.01
2013-5-22,45,38,34,30,26,24,75,62,52,29.81,29.78,10,2,10,0.00
2013-5-23,73,54,33,27,21,11,72,35,10,29.83,29.66,9,3,33,0.00
2013-5-24,71,53,33,27,18,5,60,31,8,29.88,29.75,9,3,29,0.00
2013-5-25,73,54,35,26,15,4,59,28,7,29.92,29.74,10,4,32,0.00
2013-5-26,72,55,37,25,15,-1,56,27,6,29.86,29.69,9,4,24,0.00
2013-5-27,70,53,35,24,15,8,49,26,9,29.78,29.57,8,5,34,0.00
2013-5-28,68,50,34,24,15,-2,54,29,7,29.70,29.47,8,4,32,0.00
2013-5-29,41,39,36,23,21,19,55,47,43,29.53,29.51,14,1,14,0.00
2013-5-30,66,50,33,30,20,5,79,39,9,29.72,29.59,15,6,36,0.00
2013-5-31,65,51,36,25,14,-5,55,29,6,29.89,29.68,15,6,32,0.00
2013-6-1,72,50,26,26,14,-8,62,31,4,30.06,29.88,8,2,16,0.00
2013-6-2,70,54,35,24,17,12,55,28,12,29.99,29.83,9,3,18,0.00
2013-6-8,80,60,38,35,27,19,73,35,11,29.76,29.57,9,5,25,0.00
2013-6-9,85,65,44,33,22,10,61,27,6,29.78,29.61,9,4,21,0.00
2013-6-10,86,67,46,29,23,11,44,22,6,29.75,29.53,9,5,25,0.00
2013-6-11,81,65,45,30,16,1,45,21,5,29.75,29.59,13,4,35,0.00
2013-6-12,83,64,45,30,20,14,42,22,8,29.90,29.72,8,3,25,0.00
2013-6-13,82,65,46,35,24,18,40,23,11,29.86,29.61,9,4,25,0.00
2013-6-14,63,53,49,40,36,34,58,52,37,29.74,29.69,9,2,10,0.03
2013-6-15,76,61,43,32,23,14,44,25,10,29.83,29.66,9,4,27,0.00
2013-6-16,52,47,46,33,31,30,61,53,47,29.88,29.83,10,3,17,0.00
2013-6-26,85,67,47,39,29,20,54,29,10,29.88,29.70,8,4,19,0.00
2013-6-27,86,68,50,37,32,25,48,29,11,29.91,29.77,8,4,20,0.00
2013-6-28,84,64,50,42,36,33,55,37,18,29.97,29.81,8,4,25,0.00
2013-6-29,74,60,51,54,44,38,93,60,29,29.93,29.75,7,3,19,0.17
2013-6-30,83,59,48,52,45,34,95,68,17,29.95,29.73,11,6,24,0.17
2013-7-1,77,60,45,48,43,38,96,61,25,30.01,29.79,8,3,17,0.01
2013-7-2,76,65,44,46,43,40,94,50,30,29.97,29.75,13,3,13,0.00
2013-7-3,78,62,43,44,38,26,88,48,15,29.86,29.63,23,4,25,0.01
2013-7-4,83,67,48,48,40,31,81,41,15,29.79,29.58,12,3,13,0.00
2013-7-5,80,61,52,58,51,42,92,73,26,29.65,29.51,12,1,13,0.16
2013-7-6,73,60,48,50,48,44,96,68,37,29.78,29.71,12,3,12,0.00
2013-7-7,78,65,53,49,46,41,81,56,28,29.83,29.74,9,4,16,0.00
2013-7-8,53,51,49,52,50,48,97,96,92,29.92,29.83,6,0,8,0.01
2013-7-9,75,58,50,50,48,45,82,70,38,29.96,29.89,10,8,20,0.00
2013-7-10,78,61,48,56,48,44,90,65,32,29.91,29.72,5,2,21,0.09
2013-7-11,82,66,50,50,46,42,84,55,26,29.88,29.64,12,4,18,0.00
2013-7-12,75,65,52,57,51,48,85,61,40,29.74,29.64,16,4,18,0.05
2013-7-13,78,64,53,61,54,48,93,70,36,29.84,29.71,8,2,13,1.08
2013-7-14,79,65,52,56,52,46,97,65,33,29.89,29.73,19,5,19,0.74
2013-7-15,67,58,50,56,53,49,97,84,58,29.88,29.77,4,1,11,0.20
2013-7-16,72,55,43,51,46,40,98,76,32,29.95,29.84,6,2,17,0.37
2013-7-17,77,60,44,50,44,33,94,62,20,30.04,29.84,5,2,16,0.00
2013-7-18,81,62,46,53,48,40,94,66,24,29.95,29.70,9,3,22,0.11
2013-7-19,75,60,52,53,50,47,91,71,42,29.87,29.74,13,4,18,0.00
2013-7-20,80,62,53,52,49,40,87,65,26,29.85,29.61,17,6,17,0.00
2013-7-21,81,67,48,50,44,37,88,49,22,29.75,29.58,12,3,12,0.00
2013-7-22,79,63,52,46,44,37,75,52,23,29.79,29.69,18,7,18,0.00
2013-7-23,82,66,51,46,40,33,65,42,17,29.79,29.65,9,5,22,0.00
2013-7-24,75,64,53,51,44,38,93,51,26,29.84,29.68,7,4,22,0.17
2013-7-25,69,58,50,53,50,48,96,78,51,29.85,29.80,9,2,10,0.00
2013-7-26,79,64,46,52,48,45,94,60,34,29.93,29.76,16,3,16,0.00
2013-7-27,77,62,48,54,47,44,89,60,36,29.91,29.71,14,2,14,0.02
2013-7-28,71,61,52,56,52,47,97,75,50,29.82,29.65,15,2,15,0.40
2013-7-29,67,57,49,51,49,46,96,77,52,29.94,29.75,11,3,16,0.09
2013-7-30,61,53,46,47,44,42,86,74,59,30.06,29.95,15,6,17,0.00
2013-7-31,77,59,48,44,41,30,72,53,19,30.09,29.97,15,6,16,0.00
2013-8-1,70,60,51,54,45,40,81,58,47,29.91,29.78,14,4,14,0.03
2013-8-2,68,58,49,52,49,46,95,73,54,29.88,29.83,11,4,15,0.00
2013-8-3,78,64,53,53,48,43,92,61,29,29.91,29.78,15,4,20,0.20
2013-8-4,78,61,51,58,50,41,90,69,29,30.00,29.81,19,6,19,0.17
2013-8-5,74,58,51,54,50,46,95,78,37,29.94,29.79,13,4,18,0.02
2013-8-6,68,57,50,56,50,44,95,79,51,29.90,29.79,11,3,14,0.44
2013-8-7,57,52,50,54,50,48,96,93,85,29.89,29.80,3,1,9,0.76
2013-8-8,49,49,48,46,46,46,92,90,89,29.91,29.87,6,4,12,0.00
2013-8-9,67,52,44,50,44,41,91,74,45,30.04,29.95,13,4,15,0.00
2013-8-10,72,51,42,48,43,39,96,77,34,30.11,29.97,13,4,14,0.00
2013-8-11,73,55,45,50,42,34,91,68,25,30.11,29.94,17,6,19,0.01
2013-8-12,68,54,44,52,44,39,91,68,45,30.00,29.86,12,4,16,0.07
2013-8-13,50,49,48,47,46,45,96,88,82,30.03,30.00,15,5,15,0.00
2013-8-14,74,56,45,46,41,32,86,61,22,30.04,29.83,20,5,28,0.00
2013-8-15,55,49,44,41,37,35,87,64,51,30.02,29.95,19,7,19,0.00
2013-8-16,56,48,47,41,36,35,79,62,55,30.02,29.95,20,7,20,0.00
2013-8-17,80,61,52,47,38,30,65,45,16,29.95,29.73,15,4,16,0.00
2013-8-18,74,62,50,49,43,36,76,52,26,29.93,29.83,15,4,15,0.00
2013-8-19,57,54,51,49,47,45,83,78,72,29.93,29.91,11,6,16,0.00
2013-8-20,79,61,48,50,46,38,95,63,23,29.91,29.75,12,4,16,0.00
2013-8-21,78,59,51,52,46,41,84,63,27,29.87,29.75,16,6,23,0.05
2013-8-22,78,64,51,58,48,43,82,58,30,29.95,29.72,14,4,16,0.01
2013-8-23,54,52,50,52,50,48,97,95,91,29.84,29.80,5,1,7,0.11
2013-8-24,68,57,50,55,50,43,94,77,49,29.86,29.78,6,2,15,0.12
2013-8-25,64,60,51,56,53,49,96,79,59,30.00,29.91,12,2,12,0.29
2013-8-26,76,60,51,59,52,49,97,78,40,30.02,29.81,8,1,9,0.05
2013-8-27,77,58,49,52,48,43,92,71,32,29.95,29.77,14,4,14,0.00
2013-8-28,80,62,49,51,46,36,87,62,22,29.88,29.74,12,5,19,0.00
2013-8-29,78,61,50,50,46,41,81,63,27,29.94,29.81,15,4,20,0.00
2013-8-30,81,65,55,50,46,38,77,55,22,29.93,29.72,13,4,20,0.00
2013-8-31,79,63,53,52,48,42,77,60,28,29.81,29.68,13,4,18,0.00
2013-9-1,77,63,50,57,47,43,90,60,30,29.88,29.71,13,3,16,0.06
2013-9-2,76,58,47,57,51,46,97,79,41,29.94,29.80,16,1,16,0.16
2013-9-3,77,61,49,53,48,45,85,65,36,29.96,29.82,18,5,18,0.14
2013-9-4,78,64,54,57,50,43,79,61,30,29.95,29.78,11,3,11,0.00
2013-9-5,77,56,50,49,46,43,83,71,31,30.00,29.91,10,4,17,0.00
2013-9-6,81,63,48,44,41,27,77,49,14,29.98,29.75,8,4,19,0.00
2013-9-7,58,52,48,43,42,40,74,66,52,29.90,29.84,16,7,16,0.00
2013-9-8,76,64,50,48,45,42,77,52,31,29.82,29.58,10,3,16,0.00
2013-9-9,69,57,46,53,46,41,91,67,43,29.75,29.60,10,3,14,0.02
2013-9-10,61,54,46,54,50,44,96,84,62,29.87,29.72,6,1,9,0.40
2013-9-11,67,57,50,53,51,48,96,83,55,29.92,29.81,9,1,13,0.04
2013-9-12,68,53,47,54,47,43,96,83,54,30.00,29.83,12,3,13,0.16
2013-9-13,63,54,47,52,49,46,96,84,62,29.85,29.70,5,2,12,0.29
2013-9-14,60,51,47,52,47,45,95,88,64,29.80,29.72,9,2,11,0.53
2013-9-15,63,53,45,52,48,44,96,82,59,29.96,29.86,9,1,9,0.04
2013-9-16,65,53,45,54,48,44,97,87,57,30.03,29.86,8,1,9,0.26
2013-9-17,69,55,44,50,45,42,97,72,42,30.00,29.74,13,3,17,0.00
2013-9-18,66,53,47,52,48,44,97,86,51,29.81,29.66,10,1,24,0.30
2013-9-19,68,51,42,52,45,41,97,82,42,29.91,29.75,7,2,17,0.10
2013-9-20,69,52,39,45,41,34,97,70,28,29.99,29.81,13,4,18,0.01
2013-9-21,71,53,40,45,40,34,92,65,27,29.96,29.71,6,2,15,0.00
2013-9-22,56,50,43,50,46,42,97,89,75,29.75,29.48,15,1,16,0.44
2013-9-23,55,46,35,36,31,26,97,61,33,30.06,29.58,21,5,26,0.06
2013-9-24,66,47,32,38,31,27,81,58,30,30.18,29.91,19,6,22,0.00
2013-9-25,67,50,33,34,30,27,82,50,26,29.94,29.54,17,4,26,0.00
2013-9-26,65,48,34,34,27,18,83,50,17,29.63,29.51,20,2,25,0.00
2013-9-27,51,43,30,43,37,24,95,83,43,29.92,29.53,7,1,23,0.03
2013-9-28,59,38,22,34,24,20,94,64,27,30.27,30.01,17,4,18,0.00
2013-9-29,68,45,31,37,30,18,83,60,16,30.25,29.93,16,3,17,0.00
2013-9-30,70,52,36,40,30,26,79,46,25,30.04,29.75,16,4,16,0.00
2013-10-1,71,48,38,36,32,19,78,59,14,29.96,29.76,18,6,18,0.00
2013-10-2,56,41,33,29,27,25,74,59,35,29.97,29.89,18,5,19,0.00
2013-10-3,63,47,32,33,27,25,73,50,23,29.84,29.58,6,3,19,0.00
2013-10-4,53,39,28,33,18,-3,92,51,12,29.86,29.55,18,4,28,0.01
2013-10-5,54,39,27,18,12,-2,60,37,10,30.25,30.08,15,4,20,0.00
2013-10-6,37,29,25,11,9,7,52,42,28,30.36,30.29,16,5,17,0.00
2013-10-7,68,45,30,32,25,22,80,51,20,30.28,29.98,9,4,20,0.00
2013-10-8,64,46,34,31,26,23,70,50,21,30.04,29.72,8,3,30,0.00
2013-10-9,59,44,29,33,25,19,83,53,21,29.87,29.76,9,3,25,0.00
2013-10-10,48,37,27,37,33,26,94,84,48,29.84,29.54,8,1,25,0.20
2013-10-11,50,36,22,35,28,20,94,74,46,30.11,29.83,12,2,12,0.11
2013-10-12,54,33,26,30,24,20,93,71,32,30.23,30.04,17,5,17,0.00
2013-10-13,57,45,28,39,32,25,92,63,37,30.21,29.89,27,3,28,0.00
2013-10-14,50,41,32,38,22,14,88,50,24,29.98,29.80,16,3,22,0.00
2013-10-15,45,29,24,23,20,17,81,70,32,30.13,29.99,10,3,13,0.00
2013-10-16,46,34,25,30,24,19,96,69,38,30.13,30.01,9,2,14,0.13
2013-10-17,52,34,22,29,19,14,85,57,30,30.23,29.94,15,4,19,0.00
2013-10-18,25,25,24,22,21,20,87,85,85,30.02,30.02,1,0,1,0.00
2013-10-19,56,35,22,21,14,10,78,46,19,30.30,30.07,8,3,19,0.00
2013-10-20,57,43,25,26,19,12,71,41,17,30.10,29.83,14,4,21,0.00
2013-10-21,55,40,25,22,15,6,79,43,14,30.19,30.01,14,2,16,0.00
2013-10-22,54,36,28,20,15,13,57,43,24,30.30,30.22,19,6,20,0.00
2013-10-23,62,45,29,24,21,15,71,44,16,30.25,30.06,19,6,19,0.00
2013-10-24,36,31,29,22,21,20,71,66,56,30.26,30.19,16,6,16,0.00
2013-10-25,51,40,34,36,30,25,93,69,47,30.22,30.04,6,2,17,0.13
2013-10-26,55,42,35,37,34,27,92,75,38,30.29,30.16,19,6,21,0.00
2013-10-27,56,40,30,32,28,26,87,65,32,30.20,29.84,16,4,18,0.00
2013-10-28,52,42,29,32,24,19,89,56,28,29.91,29.77,21,3,26,0.00
2013-10-29,46,38,29,32,27,16,95,65,30,29.90,29.78,20,2,20,0.02
2013-10-30,32,22,18,31,19,15,95,87,79,30.00,29.86,6,2,6,0.00
2013-10-31,44,29,16,22,18,14,88,67,37,30.17,30.01,9,3,20,0.02
2013-11-1,46,32,19,23,17,13,92,60,29,30.39,30.15,10,4,24,0.00
2013-11-2,56,35,23,26,16,12,78,50,21,30.40,30.09,16,5,22,0.02
2013-11-3,48,38,25,26,22,18,78,55,39,30.10,29.73,24,3,25,0.00
2013-11-4,48,33,20,31,16,13,86,53,24,29.96,29.83,16,5,24,0.00
2013-11-5,39,31,22,31,18,2,95,62,30,30.18,29.77,14,3,17,0.05
2013-11-6,28,17,11,5,1,-1,60,50,36,30.56,30.29,20,8,20,0.00
2013-11-7,51,29,17,24,17,13,86,63,26,30.72,30.37,9,3,20,0.00
2013-11-8,58,36,25,23,18,11,78,55,15,30.36,30.01,10,3,20,0.00
2013-11-9,56,39,24,20,18,13,81,47,19,30.28,30.14,15,6,18,0.00
2013-11-10,58,37,26,24,20,18,81,54,21,30.40,30.20,21,7,21,0.00
2013-11-11,56,42,25,20,17,10,73,42,17,30.49,30.28,19,5,21,0.00
2013-11-12,56,38,26,20,18,14,67,45,19,30.63,30.44,19,7,22,0.00
2013-11-13,52,33,25,20,17,16,67,54,26,30.55,30.24,20,9,20,0.00
2013-11-14,52,34,25,23,20,9,82,59,18,30.15,29.90,13,4,15,0.00
2013-11-15,47,34,20,31,23,17,95,66,36,29.96,29.63,15,2,26,0.00
2013-11-16,41,32,22,30,25,20,95,79,53,29.69,29.53,10,1,10,0.22
2013-11-17,48,34,24,25,22,19,90,64,36,30.15,29.66,9,1,19,0.06
2013-11-18,43,25,16,22,17,11,85,72,38,30.41,30.19,22,4,22,0.00
2013-11-19,50,35,20,28,22,15,86,61,35,30.34,29.95,17,5,19,0.00
2013-11-20,47,35,21,31,25,18,93,68,39,30.02,29.79,13,3,13,0.00
2013-11-21,36,30,27,30,28,26,95,92,78,29.97,29.88,7,0,7,0.00
2013-11-22,32,29,28,31,27,26,96,94,91,30.34,30.12,1,0,4,0.00
2013-11-23,28,27,27,26,26,25,94,93,91,30.47,30.39,0,0,0,0.00
2013-11-24,32,24,20,26,22,18,94,91,75,30.34,30.11,0,0,0,0.00
2013-11-27,34,17,8,20,11,4,92,79,56,30.70,30.48,11,5,21,0.00
2013-11-28,33,18,11,21,13,7,92,79,56,30.59,30.45,11,6,20,0.00
2013-11-29,35,17,9,20,12,5,92,79,53,30.67,30.54,12,6,22,0.00
2013-11-30,39,18,9,21,13,5,93,79,48,30.70,30.51,11,6,23,0.00
2013-12-1,35,18,10,19,12,7,92,80,52,30.62,30.42,12,5,29,0.00
2013-12-2,48,23,9,23,16,7,94,78,31,30.46,29.98,10,2,24,0.01
2013-12-3,45,30,16,28,21,14,93,73,37,29.98,29.56,6,1,20,0.01
2013-12-4,34,26,11,28,19,-3,94,74,38,29.79,29.34,24,2,24,0.00
2013-12-5,25,3,-6,6,-5,-11,87,72,42,30.23,29.85,18,5,18,0.00
2013-12-6,23,3,-9,2,-5,-14,87,71,36,30.58,30.30,10,3,18,0.00
2013-12-7,25,10,-1,15,2,-6,90,71,40,30.58,29.97,13,4,18,0.00
2013-12-8,18,15,12,14,5,-6,91,67,41,29.93,29.82,20,4,26,0.00
2013-12-9,15,-5,-14,-9,-16,-20,76,62,26,30.93,30.26,17,8,19,0.00
2013-12-10,18,1,-10,1,-9,-17,85,63,42,31.01,30.74,20,7,23,0.00
2013-12-11,24,8,-1,8,1,-5,89,72,49,31.04,30.89,17,5,18,0.00
2013-12-12,25,13,2,8,3,-4,78,64,45,31.02,30.60,24,7,24,0.00
2013-12-13,37,21,4,13,7,-1,81,58,30,30.54,30.21,20,6,20,0.00
2013-12-14,30,16,5,12,6,2,89,67,40,30.72,30.38,16,5,16,0.00
2013-12-15,43,21,4,19,10,1,86,64,36,30.76,30.62,6,1,13,0.00
2013-12-16,47,22,5,20,12,2,89,70,31,30.74,30.57,8,2,19,0.00
2013-12-17,35,25,11,15,11,5,76,57,37,30.74,30.53,16,6,23,0.00
2013-12-18,34,20,14,18,11,7,84,68,45,30.58,30.15,21,9,22,0.00
2013-12-19,41,26,12,22,16,9,90,69,43,30.11,29.81,10,2,20,0.00
2013-12-20,38,27,15,25,18,13,92,72,50,29.90,29.70,8,1,11,0.00
2013-12-21,23,14,9,11,7,4,86,72,59,29.78,29.69,24,9,24,0.00
2013-12-22,31,15,-4,10,5,-7,87,65,34,30.54,30.07,10,2,14,0.00
2013-12-23,32,18,-1,12,6,-5,87,64,40,30.83,30.63,9,1,9,0.00
2013-12-24,40,21,6,20,10,3,88,64,36,30.80,30.39,21,8,21,0.00
2013-12-25,30,12,4,8,1,-5,85,62,34,30.81,30.57,10,4,19,0.00
2013-12-26,31,18,5,12,7,-2,76,64,42,30.82,30.62,11,5,24,0.00
2013-12-27,35,19,12,17,10,6,76,68,47,30.71,30.50,21,10,24,0.00
2013-12-28,35,23,12,20,14,7,83,68,51,30.48,30.15,19,7,20,0.00
2013-12-29,32,20,12,22,16,9,92,83,57,30.30,30.18,5,1,9,0.02
2013-12-30,35,15,3,14,4,-3,82,61,43,30.64,30.41,9,3,17,0.02
2013-12-31,41,22,7,20,10,1,77,61,41,30.67,30.40,12,6,22,0.00
2014-1-1,33,20,11,18,14,8,92,79,51,30.43,30.33,19,4,19,0.00
2014-1-2,36,24,7,10,4,-2,70,44,29,30.53,30.39,10,4,17,0.00